Time;durP1;ratioP1;P1;durP2;ratioP2;P2;SDS_P1;SDS_P2;PMS_P1;PMS_P2;Temp;Humidity;BMP_temperature;BMP_pressure;BME280_temperature;BME280_humidity;BME280_pressure;Samples;Min_cycle;Max_cycle;Signal;HPM_P1;HPM_P2
2021/05/10 00:01:56;;;;;;;;;;;;;;;16.36;43.75;100846.09;5017640;28;20064;-82
2021/05/10 00:04:40;;;;;;;2.05;0.90;;;;;;;16.41;44.86;100843.09;5040569;28;20300;-82
2021/05/10 00:07:25;;;;;;;1.05;0.70;;;;;;;16.30;45.21;100842.81;5041272;28;20048;-82
2021/05/10 00:10:10;;;;;;;;;;;;;;;16.33;46.59;100846.81;5038750;28;20053;-82
2021/05/10 00:12:55;;;;;;;1.13;0.60;;;;;;;16.29;46.05;100845.91;5043095;28;20392;-82
2021/05/10 00:15:40;;;;;;;1.42;0.90;;;;;;;16.20;45.94;100843.34;5033851;28;20410;-82
2021/05/10 00:21:29;;;;;;;1.95;0.77;;;;;;;16.20;46.91;100844.09;5041597;28;19913;-82
2021/05/10 00:24:14;;;;;;;1.85;0.77;;;;;;;16.30;47.63;100842.03;5039108;28;20060;-82
2021/05/10 00:26:59;;;;;;;;;;;;;;;16.36;46.76;100851.59;5062258;22;20044;-82
2021/05/10 00:29:44;;;;;;;6.38;0.88;;;;;;;16.25;46.97;100840.34;5051573;28;19920;-83
2021/05/10 00:32:48;;;;;;;2.80;0.80;;;;;;;16.34;46.69;100843.72;5052556;28;20532;-81
2021/05/10 00:35:33;;;;;;;3.90;1.10;;;;;;;16.32;47.36;100847.94;5056364;28;20064;-81
2021/05/10 00:38:37;;;;;;;4.50;1.20;;;;;;;16.25;48.33;100845.81;5032535;28;20049;-83
2021/05/10 00:41:22;;;;;;;4.05;0.98;;;;;;;16.23;49.20;100854.41;5035421;28;20049;-82
2021/05/10 00:44:07;;;;;;;4.57;1.10;;;;;;;16.27;47.17;100866.28;5033571;28;20739;-85
2021/05/10 00:46:53;;;;;;;;;;;;;;;16.25;46.66;100874.03;5034084;28;20052;-81
2021/05/10 00:49:56;;;;;;;1.67;0.77;;;;;;;16.18;48.67;100886.78;5037315;28;19913;-82
2021/05/10 00:52:41;;;;;;;2.92;0.88;;;;;;;16.09;46.44;100884.19;5034631;28;20049;-81
2021/05/10 00:55:27;;;;;;;2.53;1.00;;;;;;;15.93;45.84;100880.56;5036884;28;20060;-81
2021/05/10 00:58:11;;;;;;;5.25;1.40;;;;;;;15.90;46.08;100884.00;5032209;28;20040;-80
2021/05/10 01:00:56;;;;;;;1.40;0.95;;;;;;;15.81;47.18;100875.91;5015083;28;20425;-81
2021/05/10 01:04:00;;;;;;;4.20;1.10;;;;;;;15.69;49.13;100886.13;5012851;28;20045;-82
2021/05/10 01:06:45;;;;;;;2.75;1.80;;;;;;;15.64;48.26;100889.88;5032196;28;20044;-84
2021/05/10 01:09:31;;;;;;;4.00;1.77;;;;;;;15.62;49.53;100878.47;5018219;28;20053;-83
2021/05/10 01:12:16;;;;;;;0.90;0.80;;;;;;;15.60;51.37;100886.22;5029555;28;20052;-83
2021/05/10 01:15:01;;;;;;;5.90;1.40;;;;;;;15.61;51.24;100879.59;5034185;28;20049;-84
2021/05/10 01:17:46;;;;;;;;;;;;;;;15.66;51.15;100881.28;5014556;28;20079;-83
2021/05/10 01:20:33;;;;;;;2.90;1.33;;;;;;;15.75;50.64;100871.78;5034687;28;19917;-85
2021/05/10 01:23:18;;;;;;;5.22;1.33;;;;;;;15.82;50.06;100893.16;5036023;28;20045;-82
2021/05/10 01:26:04;;;;;;;4.93;1.85;;;;;;;15.81;49.43;100886.06;5032815;28;20060;-84
2021/05/10 01:28:49;;;;;;;2.78;1.42;;;;;;;15.50;48.97;100880.38;5028441;28;20052;-83
2021/05/10 01:31:34;;;;;;;;;;;;;;;15.47;48.88;100881.06;5020706;28;20041;-82
2021/05/10 01:34:19;;;;;;;3.90;1.20;;;;;;;15.56;47.70;100873.53;5031895;28;19913;-84
2021/05/10 01:37:04;;;;;;;7.90;1.30;;;;;;;15.43;47.71;100869.19;5029832;28;20412;-84
2021/05/10 01:40:08;;;;;;;3.20;1.35;;;;;;;15.36;47.66;100867.03;5041381;28;20064;-84
2021/05/10 01:42:54;;;;;;;9.18;1.45;;;;;;;15.26;48.97;100859.28;5039567;28;20580;-84
2021/05/10 01:45:39;;;;;;;4.10;1.60;;;;;;;15.29;48.81;100859.38;5034825;28;20057;-85
2021/05/10 01:48:24;;;;;;;2.20;1.42;;;;;;;15.23;50.17;100847.06;5025839;28;20442;-84
2021/05/10 01:51:09;;;;;;;4.43;1.50;;;;;;;15.04;51.52;100848.75;5031054;28;20057;-85
2021/05/10 01:53:54;;;;;;;;;;;;;;;14.99;53.10;100836.88;5034541;28;20053;-82
2021/05/10 01:56:39;;;;;;;2.53;1.33;;;;;;;15.04;52.10;100830.38;5039325;28;19913;-83
2021/05/10 01:59:42;;;;;;;2.75;1.58;;;;;;;15.07;51.34;100818.75;5033038;28;20303;-81
2021/05/10 02:02:28;;;;;;;3.35;1.40;;;;;;;15.06;51.28;100811.69;5040908;28;20065;-82
2021/05/10 02:05:18;;;;;;;11.05;3.05;;;;;;;15.00;51.32;100813.03;5038697;28;20061;-84
2021/05/10 02:08:22;;;;;;;3.83;1.70;;;;;;;14.90;51.57;100808.81;5035245;28;20056;-85
2021/05/10 02:11:07;;;;;;;5.05;1.90;;;;;;;14.90;53.73;100806.09;5037036;28;20528;-83
2021/05/10 02:13:52;;;;;;;3.70;1.45;;;;;;;14.70;54.99;100801.50;5037391;28;20072;-85
2021/05/10 02:16:37;;;;;;;2.92;1.20;;;;;;;14.65;55.78;100814.63;5034075;28;20048;-85
2021/05/10 02:22:26;;;;;;;4.75;2.72;;;;;;;14.64;56.93;100780.16;5032229;28;19913;-85
2021/05/10 02:25:21;;;;;;;4.85;2.15;;;;;;;14.57;57.81;100758.84;5041655;28;20780;-84
2021/05/10 02:28:44;;;;;;;6.10;2.00;;;;;;;14.62;57.79;100749.63;5030382;28;20044;-82
2021/05/10 02:31:30;;;;;;;6.07;1.90;;;;;;;14.61;58.74;100754.28;5053816;28;20068;-83
2021/05/10 02:37:56;;;;;;;4.00;1.75;;;;;;;14.69;59.19;100747.09;5035843;28;20044;-82
2021/05/10 02:44:05;;;;;;;7.00;1.58;;;;;;;14.66;59.35;100732.16;5036051;28;20068;-80
2021/05/10 02:46:49;;;;;;;2.05;1.35;;;;;;;14.69;59.64;100736.94;5039087;28;20045;-79
2021/05/10 02:49:34;;;;;;;3.95;1.90;;;;;;;14.63;59.95;100726.59;5036764;28;20433;-79
2021/05/10 02:52:20;;;;;;;1.77;1.48;;;;;;;14.61;59.90;100731.59;5040230;28;20406;-81
2021/05/10 02:55:06;;;;;;;5.82;1.42;;;;;;;14.69;59.92;100747.09;5022818;28;21010;-80
2021/05/10 02:57:54;;;;;;;7.32;2.00;;;;;;;14.72;60.02;100747.22;5032211;28;20521;-82
2021/05/10 03:00:39;;;;;;;6.57;2.28;;;;;;;14.59;60.29;100742.06;5032750;28;20052;-80
2021/05/10 03:03:24;;;;;;;;;;;;;;;14.39;60.82;100738.28;5038042;28;20044;-82
2021/05/10 03:06:08;;;;;;;4.95;2.47;;;;;;;14.37;61.27;100755.06;5035405;28;19920;-82
2021/05/10 03:08:53;;;;;;;7.05;1.90;;;;;;;14.29;61.41;100749.66;5021015;28;20049;-82
2021/05/10 03:11:39;;;;;;;5.28;1.63;;;;;;;14.31;61.08;100747.38;5037406;28;20044;-80
2021/05/10 03:14:24;;;;;;;5.47;1.50;;;;;;;14.13;61.45;100754.97;5025861;28;20045;-82
2021/05/10 03:17:09;;;;;;;;;;;;;;;14.16;61.48;100761.72;5030625;28;20049;-81
2021/05/10 03:19:53;;;;;;;8.73;2.17;;;;;;;14.02;61.47;100753.78;5037486;28;19913;-81
2021/05/10 03:22:39;;;;;;;;;;;;;;;14.15;61.22;100752.69;5035594;28;20044;-82
2021/05/10 03:25:24;;;;;;;9.68;1.70;;;;;;;14.15;61.00;100771.84;5028704;28;20380;-81
2021/05/10 03:28:09;;;;;;;7.10;1.90;;;;;;;14.22;61.06;100771.31;5029166;28;20569;-82
2021/05/10 03:31:12;;;;;;;12.35;3.03;;;;;;;14.26;61.25;100789.44;5031408;28;20056;-81
2021/05/10 03:33:57;;;;;;;4.07;2.40;;;;;;;14.24;60.27;100790.88;5029501;28;20052;-81
2021/05/10 03:36:42;;;;;;;3.63;2.65;;;;;;;14.13;60.64;100801.44;5026260;28;20044;-82
2021/05/10 03:39:27;;;;;;;2.50;1.63;;;;;;;14.09;60.85;100816.94;5035025;28;20524;-80
2021/05/10 03:42:31;;;;;;;;;;;;;;;14.17;60.69;100818.78;5039093;28;20052;-82
2021/05/10 03:45:17;;;;;;;17.95;4.15;;;;;;;14.18;60.22;100812.19;5019976;28;19913;-82
2021/05/10 03:48:02;;;;;;;17.73;2.38;;;;;;;14.22;60.00;100832.25;5031391;28;20048;-82
2021/05/10 03:50:47;;;;;;;3.83;1.88;;;;;;;13.91;60.97;100827.25;5036345;28;20056;-82
2021/05/10 03:53:51;;;;;;;4.40;2.20;;;;;;;13.93;61.23;100832.34;5031352;28;20044;-83
2021/05/10 03:56:36;;;;;;;9.32;1.55;;;;;;;14.05;61.18;100826.97;5015225;28;20045;-83
2021/05/10 03:59:39;;;;;;;4.03;1.73;;;;;;;14.13;61.39;100828.81;5035636;28;20053;-82
2021/05/10 04:02:43;;;;;;;4.63;2.22;;;;;;;14.05;62.10;100838.69;5031738;28;20064;-83
2021/05/10 04:15:34;;;;;;;4.07;1.98;;;;;;;14.16;60.47;100849.22;4996645;28;20053;-79
2021/05/10 04:18:21;;;;;;;2.10;1.52;;;;;;;14.09;60.52;100849.75;5000947;28;20044;-80
2021/05/10 04:21:05;;;;;;;7.00;2.00;;;;;;;14.11;60.22;100861.16;5037918;28;20068;-82
2021/05/10 04:23:51;;;;;;;4.72;2.45;;;;;;;14.22;60.38;100854.13;5039446;28;20524;-83
2021/05/10 04:26:36;;;;;;;3.22;1.67;;;;;;;14.32;60.09;100864.69;5039283;28;20044;-82
2021/05/10 04:29:40;;;;;;;2.90;1.80;;;;;;;14.38;60.47;100884.44;5031072;28;20052;-82
2021/05/10 04:32:25;;;;;;;;;;;;;;;14.40;60.19;100895.84;5042289;28;20060;-84
2021/05/10 04:35:10;;;;;;;6.85;1.83;;;;;;;14.37;60.46;100891.06;5021082;28;19913;-84
2021/05/10 04:37:55;;;;;;;10.27;3.10;;;;;;;14.64;59.30;100892.38;5033357;28;20045;-84
2021/05/10 04:40:40;;;;;;;8.60;2.60;;;;;;;14.66;59.43;100892.84;5030778;28;20044;-84
2021/05/10 04:43:25;;;;;;;7.47;1.90;;;;;;;14.74;59.22;100900.16;5007850;28;20049;-79
2021/05/10 04:46:10;;;;;;;4.53;1.55;;;;;;;14.83;59.19;100903.63;5040300;28;20519;-84
2021/05/10 04:48:55;;;;;;;7.80;2.90;;;;;;;14.73;59.82;100896.63;5035356;28;20056;-84
2021/05/10 04:51:40;;;;;;;6.80;2.80;;;;;;;14.85;60.01;100898.59;5028827;28;20048;-80
2021/05/10 04:54:44;;;;;;;17.60;3.03;;;;;;;14.94;59.69;100891.88;5035630;28;20528;-81
2021/05/10 04:57:47;;;;;;;11.50;2.85;;;;;;;14.97;60.53;100887.69;5034089;28;20078;-82
2021/05/10 05:00:51;;;;;;;14.88;3.13;;;;;;;15.05;61.17;100880.47;5027865;28;20052;-83
2021/05/10 05:03:56;;;;;;;13.10;3.70;;;;;;;15.10;61.58;100864.63;5035860;28;20044;-83
2021/05/10 05:06:41;;;;;;;19.63;3.53;;;;;;;15.20;61.59;100847.75;5016271;28;20052;-85
2021/05/10 05:09:26;;;;;;;11.07;2.40;;;;;;;15.36;61.37;100854.13;5030069;28;20068;-82
2021/05/10 05:12:11;;;;;;;;;;;;;;;15.54;61.32;100868.44;5039409;28;20044;-83
2021/05/10 05:14:56;;;;;;;17.00;4.73;;;;;;;15.67;60.88;100896.59;5028892;28;19913;-83
2021/05/10 05:17:41;;;;;;;11.63;3.00;;;;;;;15.93;59.59;100904.44;5036870;28;20053;-83
2021/05/10 05:20:25;;;;;;;;;;;;;;;16.06;59.98;100906.00;5037553;28;20048;-82
2021/05/10 05:23:21;;;;;;;17.73;3.20;;;;;;;16.23;59.24;100912.03;5034294;28;20296;-83
2021/05/10 05:26:06;;;;;;;15.65;2.85;;;;;;;16.40;58.95;100907.41;5033149;28;20064;-82
2021/05/10 05:29:09;;;;;;;12.75;2.95;;;;;;;16.54;58.59;100907.78;5037177;28;20049;-81
2021/05/10 05:31:57;;;;;;;15.90;2.33;;;;;;;16.64;58.17;100901.81;5037303;28;20048;-85
2021/05/10 05:34:42;;;;;;;15.80;2.25;;;;;;;16.85;57.34;100902.38;5029727;28;20040;-83
2021/05/10 05:37:45;;;;;;;8.68;2.28;;;;;;;17.04;55.93;100902.47;5034118;28;20457;-82
2021/05/10 05:40:31;;;;;;;18.42;2.95;;;;;;;17.13;55.85;100910.53;5024422;28;20053;-85
2021/05/10 05:43:16;;;;;;;10.60;3.45;;;;;;;17.39;55.44;100910.00;5036599;28;20045;-83
2021/05/10 05:46:03;;;;;;;14.15;3.72;;;;;;;17.40;55.41;100906.91;5030632;28;20045;-82
2021/05/10 05:48:48;;;;;;;13.00;2.95;;;;;;;17.67;54.32;100915.41;5020503;28;20048;-83
2021/05/10 05:51:33;;;;;;;;;;;;;;;17.71;53.68;100925.34;5039767;28;20057;-84
2021/05/10 05:54:18;;;;;;;11.82;3.03;;;;;;;17.99;53.54;100927.13;5021004;28;19912;-83
2021/05/10 05:57:05;;;;;;;11.40;2.03;;;;;;;18.29;52.40;100920.69;5037050;28;20045;-84
2021/05/10 05:59:50;;;;;;;13.77;2.45;;;;;;;18.17;51.75;100911.81;5043151;28;20061;-85
2021/05/10 06:02:36;;;;;;;;;;;;;;;18.36;51.68;100903.53;5041914;28;20052;-85
2021/05/10 06:05:20;;;;;;;;;;;;;;;18.51;51.02;100904.63;5037486;28;20318;-85
2021/05/10 06:08:05;;;;;;;16.75;3.10;;;;;;;18.86;50.24;100899.00;5036274;28;19917;-80
2021/05/10 06:10:50;;;;;;;11.52;2.60;;;;;;;18.98;48.91;100896.88;5042360;28;20049;-82
2021/05/10 06:13:36;;;;;;;;;;;;;;;19.11;48.84;100890.00;5038236;28;20044;-81
2021/05/10 06:16:21;;;;;;;;;;;;;;;19.27;47.76;100902.84;5043934;28;19913;-85
2021/05/10 06:19:10;;;;;;;14.25;2.42;;;;;;;19.50;47.69;100901.69;5041154;28;19913;-82
2021/05/10 06:21:54;;;;;;;11.23;2.50;;;;;;;19.71;46.77;100905.94;5037831;28;20048;-82
2021/05/10 06:24:40;;;;;;;13.90;3.00;;;;;;;19.81;45.29;100905.31;5042694;28;20048;-83
2021/05/10 06:27:25;;;;;;;7.82;2.25;;;;;;;20.18;44.78;100913.66;5082710;22;20387;-79
2021/05/10 06:30:11;;;;;;;;;;;;;;;20.46;43.43;100925.91;5102145;28;20051;-81
2021/05/10 06:33:15;;;;;;;10.85;2.75;;;;;;;20.64;42.78;100914.25;5103080;28;19912;-82
2021/05/10 06:36:00;;;;;;;10.10;2.10;;;;;;;20.82;41.25;100913.28;5108647;28;20055;-82
2021/05/10 06:38:45;;;;;;;7.35;2.88;;;;;;;21.39;40.14;100918.53;5105347;28;20404;-83
2021/05/10 06:41:30;;;;;;;6.85;2.25;;;;;;;21.60;40.45;100913.16;5104647;28;20047;-82
2021/05/10 06:44:15;;;;;;;5.82;2.00;;;;;;;21.58;39.47;100899.72;5105839;28;20043;-83
2021/05/10 06:47:00;;;;;;;6.88;1.98;;;;;;;22.01;39.28;100906.31;5104422;28;20043;-83
2021/05/10 06:50:22;;;;;;;4.47;1.48;;;;;;;22.28;38.28;100900.50;5101452;28;20071;-82
2021/05/10 06:53:07;;;;;;;9.15;2.03;;;;;;;21.38;39.85;100905.88;5105918;28;20051;-83
2021/05/10 06:55:53;;;;;;;9.98;2.17;;;;;;;21.44;38.88;100901.56;5105406;28;20051;-83
2021/05/10 06:59:17;;;;;;;6.95;2.80;;;;;;;22.69;37.39;100901.03;5104568;28;20537;-83
2021/05/10 07:02:02;;;;;;;5.15;2.22;;;;;;;24.42;34.21;100902.84;5100087;28;20039;-81
2021/05/10 07:04:47;;;;;;;5.30;2.03;;;;;;;24.40;33.78;100900.47;5103383;28;20047;-83
2021/05/10 07:07:50;;;;;;;6.40;1.92;;;;;;;24.96;33.83;100904.94;5102662;28;20047;-82
2021/05/10 07:10:35;;;;;;;3.50;1.90;;;;;;;24.71;32.68;100896.72;5099245;28;20420;-81
2021/05/10 07:13:23;;;;;;;11.05;2.00;;;;;;;24.87;32.87;100893.47;5104516;28;20554;-81
2021/05/10 07:16:45;;;;;;;10.80;1.83;;;;;;;26.29;30.60;100895.69;5099986;28;20051;-81
2021/05/10 07:19:31;;;;;;;7.30;1.80;;;;;;;25.86;31.41;100909.31;5110207;28;20047;-80
2021/05/10 07:22:16;;;;;;;8.55;2.00;;;;;;;26.57;29.72;100908.44;5094637;28;20044;-80
2021/05/10 07:25:01;;;;;;;7.13;2.33;;;;;;;27.23;28.90;100903.09;5076566;28;20051;-83
2021/05/10 07:27:47;;;;;;;4.90;2.25;;;;;;;27.13;29.10;100904.03;5072751;28;20040;-88
2021/05/10 07:30:32;;;;;;;9.02;1.83;;;;;;;27.36;28.99;100894.09;5064203;28;20055;-90
2021/05/10 07:33:36;;;;;;;5.18;2.08;;;;;;;27.21;28.68;100901.94;5061142;28;20409;-82
2021/05/10 07:36:21;;;;;;;6.13;2.03;;;;;;;28.50;27.44;100896.28;5074783;28;20035;-86
2021/05/10 07:39:25;;;;;;;4.70;1.90;;;;;;;27.79;28.14;100899.72;5053315;28;20052;-83
2021/05/10 07:42:10;;;;;;;9.88;2.13;;;;;;;27.70;28.02;100888.31;5071787;28;20031;-83
2021/05/10 07:44:55;;;;;;;5.47;2.30;;;;;;;28.48;27.32;100885.53;5072443;28;20056;-82
2021/05/10 07:48:00;;;;;;;8.95;2.47;;;;;;;27.11;29.21;100880.56;5071121;28;20048;-83
2021/05/10 07:50:46;;;;;;;7.47;2.35;;;;;;;27.43;29.21;100871.66;5072825;28;20429;-83
2021/05/10 07:53:31;;;;;;;3.83;1.98;;;;;;;28.91;26.10;100870.56;5061360;28;20048;-83
2021/05/10 07:56:17;;;;;;;2.28;1.67;;;;;;;30.06;24.64;100861.53;5060287;28;20064;-83
2021/05/10 07:59:03;;;;;;;7.88;1.80;;;;;;;29.83;24.55;100865.38;5059041;28;20052;-83
2021/05/10 08:01:49;;;;;;;7.57;1.63;;;;;;;31.10;23.28;100860.69;5064690;28;20064;-84
2021/05/10 08:04:33;;;;;;;27.17;2.72;;;;;;;31.54;22.71;100855.97;5066385;28;20112;-82
2021/05/10 08:07:19;;;;;;;5.18;1.30;;;;;;;32.26;21.33;100849.31;5075691;28;20044;-81
2021/05/10 08:10:05;;;;;;;7.80;1.40;;;;;;;27.69;27.45;100834.44;5070511;28;20052;-84
2021/05/10 08:12:50;;;;;;;4.10;1.40;;;;;;;26.26;30.20;100826.81;5069347;28;20047;-83
2021/05/10 08:15:54;;;;;;;7.82;1.45;;;;;;;29.55;25.61;100830.50;5078635;28;20047;-82
2021/05/10 08:18:42;;;;;;;10.95;1.70;;;;;;;30.76;23.63;100838.94;5076688;28;20044;-82
2021/05/10 08:21:26;;;;;;;4.63;1.50;;;;;;;30.70;23.29;100826.69;5065979;28;20703;-83
2021/05/10 08:24:12;;;;;;;4.10;1.45;;;;;;;29.15;26.17;100846.78;5076707;28;20074;-82
2021/05/10 08:26:58;;;;;;;15.48;1.90;;;;;;;30.10;24.55;100842.59;5072577;28;20052;-81
2021/05/10 08:29:44;;;;;;;8.57;1.35;;;;;;;28.88;26.67;100840.66;5069228;28;20058;-81
2021/05/10 08:32:29;;;;;;;8.80;2.20;;;;;;;26.57;29.01;100838.72;5074601;28;20044;-81
2021/05/10 08:35:14;;;;;;;5.97;2.45;;;;;;;29.11;25.71;100848.06;5068952;28;20067;-80
2021/05/10 08:38:38;;;;;;;7.57;1.58;;;;;;;30.97;22.83;100857.09;5081300;28;20051;-80
2021/05/10 08:41:23;;;;;;;;;;;;;;;29.39;24.35;100864.19;5071417;28;20452;-81
2021/05/10 08:44:10;;;;;;;8.20;1.90;;;;;;;31.09;22.77;100869.59;5066061;28;19912;-81
2021/05/10 08:46:54;;;;;;;7.75;1.80;;;;;;;30.32;23.48;100863.16;5079268;28;20047;-81
2021/05/10 08:49:59;;;;;;;4.50;1.23;;;;;;;28.30;27.34;100854.34;5067296;28;20519;-80
2021/05/10 08:52:44;;;;;;;8.77;1.50;;;;;;;27.20;27.89;100852.88;5077654;28;20043;-80
2021/05/10 08:55:29;;;;;;;8.43;1.92;;;;;;;29.72;24.22;100873.28;5076428;28;20048;-80
2021/05/10 08:58:14;;;;;;;6.78;2.00;;;;;;;30.77;23.06;100870.63;5066379;28;20043;-80
2021/05/10 09:01:21;;;;;;;15.23;2.25;;;;;;;32.04;21.12;100863.41;5072045;28;20043;-81
2021/05/10 09:04:06;;;;;;;3.03;1.15;;;;;;;29.56;24.60;100851.69;5081534;28;20404;-81
2021/05/10 09:07:10;;;;;;;13.65;1.25;;;;;;;31.73;22.20;100856.91;5080526;28;20052;-81
2021/05/10 09:10:00;;;;;;;4.40;1.42;;;;;;;28.38;25.14;100844.59;5083261;28;20083;-81
2021/05/10 09:13:04;;;;;;;3.80;1.20;;;;;;;27.54;26.36;100825.53;5078385;28;20043;-80
2021/05/10 09:16:01;;;;;;;5.72;1.52;;;;;;;31.51;22.48;100825.16;5065905;28;20409;-83
2021/05/10 09:19:15;;;;;;;5.38;1.23;;;;;;;31.34;21.86;100816.88;5066516;28;20052;-83
2021/05/10 09:22:20;;;;;;;8.07;1.55;;;;;;;30.23;25.08;100815.31;5062608;28;20071;-89
2021/05/10 09:25:05;;;;;;;41.65;4.55;;;;;;;32.62;21.98;100837.41;5064532;28;20044;-77
2021/05/10 09:28:18;;;;;;;5.82;2.00;;;;;;;31.37;22.31;100830.06;5052781;28;20044;-77
2021/05/10 09:31:08;;;;;;;5.75;1.85;;;;;;;31.23;22.91;100829.78;5056155;28;20048;-77
2021/05/10 09:37:25;;;;;;;9.35;1.80;;;;;;;31.94;22.51;100799.09;5066396;28;20047;-78
2021/05/10 09:40:11;;;;;;;15.48;2.70;;;;;;;33.21;21.21;100804.41;5063815;28;20397;-79
2021/05/10 09:43:17;;;;;;;7.10;1.80;;;;;;;32.52;21.64;100793.56;5062601;28;20044;-79
2021/05/10 09:46:13;;;;;;;13.48;2.13;;;;;;;32.33;22.54;100786.31;5065599;28;20431;-79
2021/05/10 09:49:00;;;;;;;2.85;1.25;;;;;;;32.34;22.58;100783.03;5062229;28;20048;-79
2021/05/10 09:52:34;;;;;;;6.03;1.80;;;;;;;33.32;20.90;100797.03;5061880;28;20056;-78
2021/05/10 09:55:18;;;;;;;5.95;2.53;;;;;;;32.36;22.20;100807.91;5056603;28;20043;-79
2021/05/10 09:58:22;;;;;;;18.63;2.15;;;;;;;32.11;22.08;100806.06;5076970;28;20412;-79
2021/05/10 10:01:08;;;;;;;6.87;1.47;;;;;;;33.07;21.68;100786.81;5083753;28;20045;-79
2021/05/10 10:04:00;;;;;;;5.63;1.63;;;;;;;32.66;21.88;100804.31;5085825;28;20047;-80
2021/05/10 10:06:46;;;;;;;9.35;2.33;;;;;;;31.99;22.67;100801.31;5091529;28;20039;-77
2021/05/10 10:09:50;;;;;;;5.20;1.50;;;;;;;30.78;23.81;100802.75;5098482;28;20051;-77
2021/05/10 10:15:38;;;;;;;2.95;1.20;;;;;;;33.31;21.12;100794.72;5072716;28;20044;-76
2021/05/10 10:18:25;;;;;;;4.47;1.75;;;;;;;32.03;21.87;100804.75;5070580;28;20055;-77
2021/05/10 10:21:13;;;;;;;7.80;1.38;;;;;;;33.94;20.54;100797.47;5079795;28;20512;-78
2021/05/10 10:24:03;;;;;;;5.70;1.33;;;;;;;33.69;20.00;100794.22;5077026;28;20043;-77
2021/05/10 10:26:49;;;;;;;4.47;1.42;;;;;;;32.90;21.41;100801.69;5061196;28;20043;-77
2021/05/10 10:29:35;;;;;;;6.85;1.25;;;;;;;33.20;21.59;100800.81;5058082;28;20056;-77
2021/05/10 10:32:39;;;;;;;3.47;1.00;;;;;;;34.82;18.75;100821.94;5070983;28;20043;-77
2021/05/10 10:35:25;;;;;;;5.18;1.42;;;;;;;32.99;21.10;100810.94;5080171;28;20052;-77
2021/05/10 10:41:55;;;;;;;5.30;1.27;;;;;;;34.95;19.61;100813.97;5067560;28;20404;-77
2021/05/10 10:44:42;;;;;;;5.55;1.58;;;;;;;34.38;20.40;100804.72;5073413;28;20044;-77
2021/05/10 10:47:44;;;;;;;6.45;1.27;;;;;;;34.24;20.36;100800.53;5070410;28;20404;-77
2021/05/10 10:50:30;;;;;;;8.25;2.45;;;;;;;33.14;21.08;100776.50;5069636;28;20059;-77
2021/05/10 10:53:15;;;;;;;16.30;2.25;;;;;;;32.32;21.80;100756.59;5076203;28;20048;-77
2021/05/10 10:56:00;;;;;;;4.70;1.50;;;;;;;34.04;20.20;100758.69;5073159;28;20055;-77
2021/05/10 10:58:51;;;;;;;4.20;1.35;;;;;;;32.53;21.58;100750.09;5075478;28;20047;-77
2021/05/10 11:01:42;;;;;;;2.50;0.93;;;;;;;33.18;20.57;100748.97;5076598;28;20059;-77
2021/05/10 11:04:30;;;;;;;4.78;1.63;;;;;;;32.44;21.41;100744.44;5078383;28;20040;-76
2021/05/10 11:07:34;;;;;;;3.83;1.23;;;;;;;33.19;20.74;100761.81;5078990;28;20047;-79
2021/05/10 11:10:44;;;;;;;9.15;1.40;;;;;;;39.54;14.41;100767.44;5079916;28;20071;-82
2021/05/10 11:13:32;;;;;;;16.10;1.90;;;;;;;39.48;14.08;100769.50;5071078;28;20043;-80
2021/05/10 11:16:20;;;;;;;6.75;1.40;;;;;;;36.42;17.20;100767.59;5065495;28;20036;-81
2021/05/10 11:19:05;;;;;;;8.98;1.92;;;;;;;35.43;18.76;100753.28;5075570;28;20047;-81
2021/05/10 11:21:50;;;;;;;5.68;1.50;;;;;;;34.13;20.04;100769.19;5079796;28;20051;-78
2021/05/10 11:24:35;;;;;;;7.85;1.50;;;;;;;30.96;23.52;100755.19;5081162;28;20067;-81
2021/05/10 11:27:26;;;;;;;4.13;1.15;;;;;;;30.83;23.55;100762.09;5072701;28;20405;-80
2021/05/10 11:30:11;;;;;;;6.43;1.40;;;;;;;30.95;24.14;100759.22;5071725;28;20043;-80
2021/05/10 11:32:56;;;;;;;7.60;1.65;;;;;;;29.37;25.75;100765.75;5068986;28;20052;-79
2021/05/10 11:35:41;;;;;;;3.17;1.55;;;;;;;31.17;23.53;100767.75;5075259;28;20044;-80
2021/05/10 11:38:27;;;;;;;3.00;1.48;;;;;;;30.86;24.45;100756.34;5071423;28;20044;-80
2021/05/10 11:41:12;;;;;;;4.82;1.30;;;;;;;31.28;23.15;100740.03;5071428;28;20047;-81
2021/05/10 11:44:08;;;;;;;8.63;1.10;;;;;;;32.47;21.95;100737.88;5076032;28;20067;-80
2021/05/10 11:46:58;;;;;;;2.45;1.02;;;;;;;34.45;18.78;100743.00;5072652;28;20067;-79
2021/05/10 11:49:46;;;;;;;6.03;1.48;;;;;;;37.23;16.85;100733.63;5070365;28;20048;-79
2021/05/10 11:52:32;;;;;;;15.73;1.60;;;;;;;32.76;21.28;100729.84;5072218;28;20069;-79
2021/05/10 11:55:18;;;;;;;2.78;0.95;;;;;;;35.74;17.56;100744.38;5070214;28;20044;-80
2021/05/10 11:58:03;;;;;;;5.30;1.10;;;;;;;32.77;20.29;100734.19;5068146;28;20051;-79
2021/05/10 12:00:51;;;;;;;3.28;1.05;;;;;;;37.87;16.28;100748.69;5057317;28;20039;-80
2021/05/10 12:03:37;;;;;;;2.55;1.52;;;;;;;33.42;20.06;100733.75;5071196;28;20525;-79
2021/05/10 12:09:45;;;;;;;5.55;1.20;;;;;;;37.42;14.62;100721.94;5069550;28;20497;-80
2021/05/10 12:12:35;;;;;;;6.93;1.30;;;;;;;37.22;15.30;100698.03;5069469;28;20048;-79
2021/05/10 12:15:28;;;;;;;17.23;1.13;;;;;;;35.37;17.48;100690.19;5071437;28;20044;-80
2021/05/10 12:18:13;;;;;;;8.43;1.00;;;;;;;32.65;20.21;100690.84;5072304;28;20043;-82
2021/05/10 12:20:58;;;;;;;5.20;1.50;;;;;;;29.83;24.23;100685.13;5070049;28;20047;-80
2021/05/10 12:23:43;;;;;;;5.90;1.77;;;;;;;29.15;25.44;100675.13;5075643;28;20052;-81
2021/05/10 12:26:28;;;;;;;4.95;0.98;;;;;;;27.87;27.79;100683.13;5074426;28;20048;-81
2021/05/10 12:29:14;;;;;;;4.30;1.25;;;;;;;27.70;27.57;100667.53;5082464;22;20540;-85
2021/05/10 12:31:59;;;;;;;5.32;0.77;;;;;;;27.38;27.96;100666.19;5054627;28;20052;-85
2021/05/10 12:34:44;;;;;;;7.28;1.00;;;;;;;27.23;27.74;100684.47;5056664;28;20044;-84
2021/05/10 12:37:49;;;;;;;30.15;2.28;;;;;;;27.10;27.10;100683.53;5056062;28;20516;-82
2021/05/10 12:40:39;;;;;;;2.90;0.98;;;;;;;26.68;28.39;100680.31;5038626;28;20040;-83
2021/05/10 12:43:25;;;;;;;7.72;1.10;;;;;;;26.68;29.44;100673.94;5036556;28;20044;-84
2021/05/10 12:46:11;;;;;;;8.10;1.98;;;;;;;26.21;29.35;100671.09;5034691;28;20040;-84
2021/05/10 12:48:56;;;;;;;3.33;1.05;;;;;;;26.54;29.64;100671.41;5033799;28;20421;-85
2021/05/10 12:51:52;;;;;;;8.60;1.17;;;;;;;26.78;30.42;100659.78;5037365;28;20065;-85
2021/05/10 12:54:41;;;;;;;5.05;1.67;;;;;;;26.80;29.95;100670.53;5033735;28;20421;-84
2021/05/10 12:57:46;;;;;;;13.13;1.55;;;;;;;26.90;30.18;100666.78;5037636;28;20044;-82
2021/05/10 13:00:37;;;;;;;5.60;1.17;;;;;;;26.50;30.11;100654.75;5030912;28;20048;-84
2021/05/10 13:03:41;;;;;;;12.45;1.70;;;;;;;26.50;30.53;100665.09;5027165;28;20052;-85
2021/05/10 13:06:47;;;;;;;3.40;1.40;;;;;;;26.56;29.63;100669.00;5033950;28;20113;-82
2021/05/10 13:09:33;;;;;;;4.13;1.30;;;;;;;26.15;30.72;100661.69;5029790;28;20045;-84
2021/05/10 13:12:18;;;;;;;4.00;1.10;;;;;;;26.01;30.10;100650.72;5044049;28;20052;-84
2021/05/10 13:15:03;;;;;;;6.30;1.10;;;;;;;26.18;30.68;100646.09;5041619;28;20048;-84
2021/05/10 13:37:07;;;;;;;6.95;1.20;;;;;;;26.73;29.79;100624.00;5037249;28;20048;-83
2021/05/10 13:39:52;;;;;;;3.65;1.02;;;;;;;26.11;30.19;100616.31;5035754;28;20045;-83
2021/05/10 13:43:03;;;;;;;2.97;0.95;;;;;;;25.98;29.74;100616.16;5033080;28;20241;-83
2021/05/10 13:45:48;;;;;;;13.10;1.40;;;;;;;26.13;29.48;100613.91;5030468;28;20398;-84
2021/05/10 13:48:37;;;;;;;1.70;0.85;;;;;;;26.10;29.70;100600.03;5035818;28;20040;-84
2021/05/10 13:51:22;;;;;;;9.68;1.13;;;;;;;25.85;30.59;100604.00;5039728;28;20056;-85
2021/05/10 13:54:06;;;;;;;2.90;1.50;;;;;;;25.65;30.66;100599.56;5035787;28;20048;-85
2021/05/10 13:56:55;;;;;;;4.43;0.90;;;;;;;25.78;30.75;100603.34;5035530;28;20041;-85
2021/05/10 13:59:40;;;;;;;4.68;1.05;;;;;;;25.46;32.01;100598.97;5033611;28;20040;-83
2021/05/10 14:02:24;;;;;;;2.30;1.10;;;;;;;25.46;31.48;100587.84;5035504;28;20044;-86
2021/05/10 14:05:10;;;;;;;5.57;1.50;;;;;;;25.58;32.62;100589.31;5039424;28;20113;-85
2021/05/10 14:07:55;;;;;;;2.20;0.75;;;;;;;25.41;32.41;100585.53;5034120;28;20040;-84
2021/05/10 14:10:42;;;;;;;3.15;1.17;;;;;;;25.25;31.83;100585.34;5038671;28;20052;-83